Tiempo atmosférico en la estación meteorológica de Logroño Aeropuerto, La Rioja (353 m.)



Fecha
DESCASC
Temp. máxima en grados centígrados (hora)
DESCASC
Temp. mínima en grados centígrados (hora)
DESCASC
Temp. media en grados centígrados
DESCASC
Racha de viento máxima en m/sg (hora)
DESCASC
Velocidad máxima media en intervalos de 10 minutos(hora)
DESCASC
Precipitaciones diarias en mm
DESCASC
Precipitaciones de 00:00 a 06:00 en mm
DESCASC
Precipitaciones de 06:00 a 12:00 en mm
DESCASC
Precipitaciones de 12:00 a 18:00 en mm
DESCASC
Precipitaciones de 18:00 a 24:00 en mm
DESCASC
14-07-2019 28.2 (16:10) 18.1 (00:00) 23.2 11.39 (00:10) 7.22 (00:10) 10.6 10.6 0 0 0
13-07-2019 31.2 (18:00) 18.1 (00:00) 24.7 11.39 (23:10) 7.22 (23:50) 2.3 0 0 0 2.3
12-07-2019 36.4 (17:20) 17.4 (00:00) 26.9 6.67 (20:30) 5.56 (20:30) 0 0 0 0 0
11-07-2019 34.9 (19:00) 16.1 (00:00) 25.5 6.11 (18:10) 3.89 (18:10) 0 0 0 0 0
10-07-2019 30.8 (18:40) 14.7 (00:00) 22.7 7.22 (09:20) 4.17 (02:30) 0 0 0 0 0
09-07-2019 23.9 (18:40) 16.6 (00:00) 20.3 8.33 (10:50) 4.72 (11:00) 0 0 0 0 0
08-07-2019 27.9 (13:50) 17.6 (00:00) 22.8 8.33 (20:10) 5.83 (21:00) 17.4 7.2 0 0.5 9.7
07-07-2019 34.8 (18:20) 18.7 (00:00) 26.8 7.78 (19:20) 5 (21:00) 0 0 0 0 0
06-07-2019 36.2 (17:20) 19.9 (00:00) 28.1 6.67 (20:30) 3.89 (20:10) 0 0 0 0 0
05-07-2019 -- (--) -- (--) -- -- (--) -- (--) -- 0 -- 0 0
04-07-2019 35.4 (16:30) 17.1 (00:00) 26.3 12.5 (12:50) 9.17 (12:50) 0 0 0 0 0
03-07-2019 33.7 (15:30) 18 (00:00) 25.9 10.83 (15:50) 8.06 (15:30) 0 0 0 0 0
02-07-2019 31.6 (17:50) 17.7 (03:00) 24.7 7.22 (01:20) 4.44 (01:30) 0 0 0 0 0
01-07-2019 27.5 (15:20) 18.1 (03:50) 22.8 8.89 (02:10) 6.11 (02:10) 0.1 0 0 0 0.1
30-06-2019 39.1 (16:50) 17.4 (00:00) 28.2 11.39 (19:20) 7.22 (19:20) 0.4 0 0 0 0.4
29-06-2019 42.2 (17:10) 16.6 (00:00) 29.4 11.39 (15:40) 8.33 (16:20) 0 0 0 0 0
28-06-2019 41.1 (18:10) 17.5 (00:00) 29.3 10.83 (18:20) 8.06 (18:40) 0 0 0 0 0
27-06-2019 38.6 (16:40) 21.5 (00:00) 30 15.28 (16:50) 11.39 (17:00) 0 0 0 0 0
26-06-2019 37.2 (18:20) 21.3 (00:00) 29.3 17.5 (20:20) 12.5 (12:40) 0 0 0 0 0
25-06-2019 35 (17:50) 16.4 (00:00) 25.7 12.5 (20:50) 8.89 (19:40) 0 0 0 0 0
24-06-2019 33.5 (17:10) 19.9 (00:00) 26.7 13.89 (10:50) 10.56 (10:50) 0 0 0 0 0
23-06-2019 35.5 (18:00) 19.8 (00:00) 27.6 8.33 (09:40) 6.11 (09:40) 0 0 0 0 0
22-06-2019 30.1 (19:00) 11.5 (00:00) 20.8 7.22 (19:00) 5 (19:50) 0 0 0 0 0
21-06-2019 22.6 (17:20) 14.3 (00:00) 18.5 -- (--) -- (--) 6.5 6.5 0 0 0
20-06-2019 23.3 (14:50) 15.7 (00:00) 19.5 -- (--) -- (--) 4.3 0 0 0.1 4.2
19-06-2019 29.7 (18:40) 16.1 (00:00) 22.9 8.33 (15:30) 5.56 (15:30) 0 0 0 0 0
18-06-2019 34.4 (16:50) 17.9 (00:00) 26.2 12.5 (13:00) 9.17 (13:10) 0 0 0 0 0
17-06-2019 33.5 (17:50) 13.9 (00:00) 23.7 8.33 (15:40) 5 (12:50) 0 0 0 0 0
16-06-2019 29.8 (17:10) 8.8 (00:00) 19.3 9.72 (14:20) 6.67 (15:50) 0 0 0 0 0

Gráficas

Temp. máximas Temp. mínimas Temp. medias Precipitaciones Rachas de viento máximas Velocidades máximas media en intervalos de 10 minutos

Datos horarios

Fecha y hora oficial Temperatura (ºC) Velocidad del viento (km/h) Dirección del viento Racha (km/h) Dirección de racha Precipitación (mm) Presión (hPa) Tendencia (hPa) Humedad (%)
2019-07-15 23:00:00 19.9 8 Sudoeste 11 Oeste 0 975.3 2 58
2019-07-15 22:00:00 22.1 6 Oeste 15 Noroeste 0 974.7 2 47
2019-07-15 21:00:00 25.3 6 Oeste 21 Noroeste 0 974.1 1.5 34
2019-07-15 20:00:00 26.4 10 Noroeste 24 Noroeste 0 973.3 0.5 33
2019-07-15 19:00:00 27.2 11 Noroeste 24 Norte 0 972.7 -0.4 27
2019-07-15 18:00:00 28.1 12 Noroeste 22 Norte 0 972.6 -0.5 28
2019-07-15 17:00:00 28.3 12 Noroeste 21 Noroeste 0 972.8 -0.6 28
2019-07-15 16:00:00 27.9 13 Noroeste 22 Oeste 0 973.1 -0.8 31
2019-07-15 15:00:00 27.1 12 Oeste 22 Oeste 0 973.1 -1 36
2019-07-15 14:00:00 26.6 9 Oeste 21 Oeste 0 973.4 -1 38
2019-07-15 13:00:00 25.2 10 Oeste 22 Oeste 0 973.9 -0.8 43
2019-07-15 12:00:00 23.8 14 Oeste 22 Sudoeste 0 974.1 -0.6 49
2019-07-15 11:00:00 22 13 Oeste 18 Oeste 0 974.4 -0.1 54
2019-07-15 10:00:00 20.4 13 Oeste 22 Oeste 0 974.7 0.5 59
2019-07-15 09:00:00 18.2 13 Oeste 22 Oeste 0 974.7 0.8 68
2019-07-15 08:00:00 16.8 12 Oeste 15 Oeste 0 974.5 0.8 73
2019-07-15 07:00:00 15.6 10 Oeste 17 Oeste 0 974.2 0.2 77
2019-07-15 06:00:00 15.9 10 Oeste 17 Oeste 0 973.9 -0.5 79
2019-07-15 05:00:00 16.9 12 Oeste 21 Oeste 0 973.7 -0.9 72
2019-07-15 04:00:00 17.2 10 Oeste 18 Oeste 0 974 -0.7 72
2019-07-15 03:00:00 17.1 10 Oeste 15 Oeste 0 974.4 -0.3 73
2019-07-15 02:00:00 17.6 8 Oeste 13 Oeste 0 974.6 0.1 69
2019-07-15 01:00:00 18.8 7 Oeste 13 Sur 0 974.7 0.7 61
2019-07-15 00:00:00 19.6 6 Oeste 13 Oeste 0 974.7 1.3 58
2019-07-14 23:00:00 20.5 6 Oeste 9 Oeste 0 974.5 1.7 58
2019-07-14 22:00:00 22.4 4 Norte 17 Noroeste 0 974 1.7 49
2019-07-14 21:00:00 25.3 6 Noroeste 26 Noroeste 0 973.4 1 43
2019-07-14 20:00:00 26 13 Noroeste 30 Noroeste 0 972.8 0.6 40
2019-07-14 19:00:00 27.1 13 Norte 26 Noroeste 0 972.3 0.1 41
2019-07-14 18:00:00 27.7 11 Noroeste 22 Noroeste 0 972.4 -0.1 39
2019-07-14 17:00:00 28 12 Noroeste 24 Oeste 0 972.2 -0.7 37
2019-07-14 16:00:00 27.8 13 Oeste 26 Oeste 0 972.2 -1 42
2019-07-14 15:00:00 26.5 14 Oeste 26 Oeste 0 972.5 -0.9 47
2019-07-14 14:00:00 25.6 14 Oeste 30 Oeste 0 972.9 -0.6 54
2019-07-14 13:00:00 24.7 17 Oeste 30 Sudoeste 0 973.2 0 58
2019-07-14 12:00:00 23.5 17 Oeste 26 Oeste 0 973.4 0.6 62
2019-07-14 11:00:00 22.2 16 Oeste 24 Oeste 0 973.5 1.2 68
2019-07-14 10:00:00 21 12 Oeste 24 Oeste 0 973.2 1 74
2019-07-14 09:00:00 19.6 14 Oeste 26 Oeste 0 972.8 1 82
2019-07-14 08:00:00 18.3 14 Oeste 22 Oeste 0 972.3 0.7 89
2019-07-14 07:00:00 18.5 9 Oeste 18 Oeste 0 972.2 -1.3 89
2019-07-14 06:00:00 18.2 8 Sudoeste 26 Sur 0.8 971.8 -2 92
2019-07-14 05:00:00 18.2 9 Sudoeste 18 Oeste 1.2 971.6 -4 91
2019-07-14 04:00:00 18.6 12 Oeste 33 Oeste 1.6 973.5 0 89
2019-07-14 03:00:00 18.3 12 Noroeste 24 Sur 5 973.8 -0.9 91
2019-07-14 02:00:00 19.2 13 Oeste 28 Sur 1.3 975.6 2.8 87
2019-07-14 01:00:00 19.8 14 Oeste 41 Oeste 0.7 973.5 2.1 82
2019-07-14 00:00:00 21.1 23 Oeste 41 Oeste 0 974.7 5.3 75
2019-07-13 23:00:00 22.3 18 Oeste 32 Oeste 0 972.8 3.6 73
2019-07-13 22:00:00 22.7 12 Oeste 22 Noroeste 2.3 971.4 1.7 75
2019-07-13 21:00:00 25.6 11 Norte 22 Norte 0 969.4 -1.2 57
2019-07-13 20:00:00 28.6 5 Oeste 11 Oeste 0 969.2 -1.6 44
2019-07-13 19:00:00 27.3 8 Oeste 15 Oeste 0 969.7 -3.9 46
2019-07-13 18:00:00 31.1 6 Sur 24 Sudeste 0 970.6 -3.1 30
2019-07-13 17:00:00 27.2 14 Este 35 Este 0 970.8 -3.5 41
2019-07-13 16:00:00 27 8 Oeste 18 Oeste 0 973.6 -0.4 46
2019-07-13 15:00:00 28.1 8 Oeste 17 Oeste 0 973.7 -0.3 38
2019-07-13 14:00:00 26.1 11 Oeste 21 Oeste 0 974.3 -1.9 42
2019-07-13 13:00:00 25.1 12 Oeste 24 Sudoeste 0 974 -1.1 46
2019-07-13 12:00:00 24.9 6 Oeste 18 Sudoeste 0 974 -1 44
2019-07-13 11:00:00 23.2 13 Oeste 21 Oeste 0 976.2 0.5 52
2019-07-13 10:00:00 22.1 11 Oeste 17 Oeste 0 975.1 -0.7 55
2019-07-13 09:00:00 19.8 11 Oeste 22 Oeste 0 975 -0.8 62
2019-07-13 08:00:00 18.7 12 Oeste 18 Oeste 0 975.7 -0.3 65
2019-07-13 07:00:00 18.1 7 Oeste 11 Oeste 0 975.8 -0.3 71
2019-07-13 06:00:00 19.2 5 Oeste 17 Oeste 0 975.8 -0.4 66
2019-07-13 05:00:00 20 9 Oeste 22 Oeste 0 976 -0.1 63
2019-07-13 04:00:00 20.5 8 Oeste 17 Oeste 0 976.1 0.3 62
2019-07-13 03:00:00 21.3 7 Oeste 11 Sudoeste 0 976.2 0.9 60
2019-07-13 02:00:00 22.8 8 Oeste 17 Oeste 0 976.1 1.3 55
2019-07-13 01:00:00 23.6 3 Oeste 9 Noroeste 0 975.8 1.9 51
2019-07-13 00:00:00 24.6 5 Noroeste 13 Noroeste 0 975.3 2.1 50
2019-07-12 23:00:00 25.8 4 Oeste 9 Oeste 0 974.8 2.2 49
2019-07-12 22:00:00 28.3 4 Sudoeste 17 Este 0 973.9 1.7 46
2019-07-12 21:00:00 31.6 13 Nordeste 24 Sudeste 0 973.2 1.1 31
2019-07-12 20:00:00 34.2 16 Este 22 Este 0 972.6 0.2 27
2019-07-12 19:00:00 34.5 6 Noroeste 17 Norte 0 972.2 -1.2 25
2019-07-12 18:00:00 36.1 7 Noroeste 18 Noroeste 0 972.1 -1.7 22
2019-07-12 17:00:00 35.7 7 Oeste 18 Oeste 0 972.4 -1.8 21
2019-07-12 16:00:00 35.2 8 Oeste 13 Oeste 0 973.4 -1.3 20
2019-07-12 15:00:00 33.8 6 Oeste 13 Oeste 0 973.8 -1.4 19
2019-07-12 14:00:00 32.4 6 Oeste 11 Oeste 0 974.2 -1.3 19
2019-07-12 13:00:00 30.3 7 Oeste 13 Oeste 0 974.7 -1 25
2019-07-12 12:00:00 27.6 7 Oeste 15 Oeste 0 975.2 -0.4 33
2019-07-12 11:00:00 24.9 9 Oeste 17 Oeste 0 975.5 0.2 42
2019-07-12 10:00:00 22.5 9 Oeste 17 Oeste 0 975.7 0.8 48
2019-07-12 09:00:00 20.2 9 Oeste 17 Oeste 0 975.6 0.9 56
2019-07-12 08:00:00 18.5 10 Oeste 15 Oeste 0 975.3 0.6 61
2019-07-12 07:00:00 17.5 10 Oeste 15 Oeste 0 974.9 0.1 65
2019-07-12 06:00:00 17.9 10 Oeste 13 Oeste 0 974.7 -0.4 64
2019-07-12 05:00:00 18.7 9 Oeste 13 Oeste 0 974.7 -0.4 60
2019-07-12 04:00:00 19.5 10 Oeste 13 Oeste 0 974.8 0 58
2019-07-12 03:00:00 20.6 8 Sudoeste 13 Oeste 0 975.1 0.6 55
2019-07-12 02:00:00 21.1 7 Oeste 11 Sudoeste 0 975.1 1.2 55
2019-07-12 01:00:00 21.7 2 Oeste 5 Norte 0 974.8 2.1 61
2019-07-12 00:00:00 23 3 Oeste 9 Oeste 0 974.5 2.6 49
2019-07-11 23:00:00 23.9 0 Calma 11 Este 0 973.9 2.5 59
2019-07-11 22:00:00 26.2 4 Sudeste 9 Sudeste 0 972.7 1.4 47
2019-07-11 21:00:00 31.9 4 Sudoeste 15 Noroeste 0 971.9 0.3 28
2019-07-11 20:00:00 33.9 6 Oeste 11 Noroeste 0 971.4 -0.4 26
2019-07-11 19:00:00 34.8 5 Norte 22 Norte 0 971.3 -0.7 23
2019-07-11 18:00:00 34.4 12 Norte 21 Norte 0 971.6 -1.1 22
2019-07-11 17:00:00 34.2 10 Noroeste 17 Oeste 0 971.8 -1.4 24
2019-07-11 16:00:00 33.9 5 Oeste 21 Oeste 0 972 -1.8 24
2019-07-11 15:00:00 32.5 10 Oeste 15 Oeste 0 972.7 -1.5 25
2019-07-11 14:00:00 31.3 6 Oeste 11 Oeste 0 973.2 -1.2 26
2019-07-11 13:00:00 29.5 6 Oeste 11 Oeste 0 973.8 -0.6 27
2019-07-11 12:00:00 26.6 9 Oeste 17 Oeste 0 974.2 -0.1 39
2019-07-11 11:00:00 23.8 11 Oeste 18 Oeste 0 974.4 0.3 47
2019-07-11 10:00:00 21.2 10 Oeste 13 Oeste 0 974.4 0.6 57
2019-07-11 09:00:00 18.9 10 Oeste 17 Oeste 0 974.3 0.5 65
2019-07-11 08:00:00 17.6 8 Oeste 11 Oeste 0 974.1 0.3 70
2019-07-11 07:00:00 16.3 5 Oeste 11 Sudoeste 0 973.8 0 73
2019-07-11 06:00:00 16.2 7 Sudoeste 11 Oeste 0 973.8 -0.1 75
2019-07-11 05:00:00 17 10 Sudoeste 13 Oeste 0 973.8 -0.1 72
2019-07-11 04:00:00 17.6 7 Oeste 13 Oeste 0 973.8 -0.3 73
2019-07-11 03:00:00 18.2 7 Oeste 13 Oeste 0 973.9 -0.1 70
2019-07-11 02:00:00 19 7 Oeste 13 Oeste 0 973.9 0 67
2019-07-11 01:00:00 19.5 6 Sudoeste 9 Sudoeste 0 974.1 1 66
2019-07-11 00:00:00 20.2 6 Sudoeste 9 Oeste 0 974 1 65
2019-07-10 23:00:00 22.5 7 Sudoeste 11 Sudoeste 0 973.9 0.9 52
2019-07-10 22:00:00 25.2 5 Norte 9 Nordeste 0 973.1 0.4 42
2019-07-10 21:00:00 27.8 7 Oeste 15 Noroeste 0 973 0.3 37
2019-07-10 20:00:00 29.1 11 Noroeste 21 Noroeste 0 973 0.1 34
2019-07-10 19:00:00 30.6 9 Noroeste 17 Oeste 0 972.7 -0.8 31
2019-07-10 18:00:00 30.3 11 Oeste 21 Oeste 0 972.7 -1.5 31
2019-07-10 17:00:00 29.7 14 Oeste 22 Oeste 0 972.9 -2 33
2019-07-10 16:00:00 28.9 11 Oeste 21 Sudoeste 0 973.5 -2 35
2019-07-10 15:00:00 27.8 12 Oeste 21 Sudoeste 0 974.2 -1.7 37
2019-07-10 14:00:00 26.8 12 Oeste 18 Oeste 0 974.9 -1.3 40
2019-07-10 13:00:00 25.3 12 Oeste 21 Sudoeste 0 975.5 -1 43
2019-07-10 12:00:00 23.3 14 Oeste 21 Oeste 0 975.9 -0.6 45
2019-07-10 11:00:00 21.1 15 Oeste 22 Oeste 0 976.2 0 49
2019-07-10 10:00:00 18.9 13 Oeste 26 Oeste 0 976.5 0.4 58
2019-07-10 09:00:00 17 14 Oeste 24 Oeste 0 976.5 0.5 65
2019-07-10 08:00:00 15.5 12 Oeste 24 Oeste 0 976.2 0.2 74
2019-07-10 07:00:00 14.7 13 Oeste 21 Oeste 0 976.1 -0.1 79
2019-07-10 06:00:00 15.2 9 Oeste 17 Oeste 0 976 -0.5 80
2019-07-10 05:00:00 15.7 8 Oeste 24 Oeste 0 976 -0.8 81
2019-07-10 04:00:00 16 12 Oeste 18 Oeste 0 976.2 -0.9 79
2019-07-10 03:00:00 16.6 10 Oeste 22 Sudoeste 0 976.5 -0.6 77
2019-07-10 02:00:00 16.7 12 Oeste 21 Oeste 0 976.8 0.2 75
2019-07-10 01:00:00 17.1 9 Oeste 18 Oeste 0 977.1 1.5 64
2019-07-10 00:00:00 17.7 10 Oeste 18 Oeste 0 977.1 1.9 60
2019-07-09 23:00:00 18.6 9 Oeste 17 Noroeste 0 976.6 2 58
2019-07-09 22:00:00 19.8 9 Noroeste 26 Noroeste 0 975.6 1.2 52
2019-07-09 21:00:00 21.3 9 Noroeste 22 Noroeste 0 975.2 0.8 51
2019-07-09 20:00:00 23.4 10 Noroeste 21 Noroeste 0 974.6 0.1 48
2019-07-09 19:00:00 23.4 10 Noroeste 24 Oeste 0 974.4 -0.4 50
2019-07-09 18:00:00 22.4 13 Noroeste 24 Noroeste 0 974.4 -0.5 56
2019-07-09 17:00:00 22.1 9 Oeste 21 Oeste 0 974.5 -0.5 61
2019-07-09 16:00:00 21.2 11 Oeste 18 Oeste 0 974.8 0 68
2019-07-09 15:00:00 20.3 13 Oeste 21 Oeste 0 974.9 0.8 75
2019-07-09 14:00:00 18.8 10 Oeste 17 Oeste 0 975 1.5 81
2019-07-09 13:00:00 19.2 11 Oeste 18 Oeste 0 974.8 1.4 78
2019-07-09 12:00:00 18.7 14 Oeste 26 Oeste 0 974.1 0.4 80
2019-07-09 11:00:00 19.3 17 Oeste 30 Oeste 0 973.5 0.3 79
2019-07-09 10:00:00 18.3 13 Oeste 22 Oeste 0 973.4 0 84
2019-07-09 09:00:00 18.4 11 Oeste 18 Oeste 0 973.7 1.2 83
2019-07-09 08:00:00 17.5 12 Oeste 18 Oeste 0 973.2 0.4 88
2019-07-09 07:00:00 17.2 4 Oeste 13 Oeste 0 973.4 -0.1 89
2019-07-09 06:00:00 16.7 9 Oeste 13 Oeste 0 972.5 -0.7 91
2019-07-09 05:00:00 16.8 4 Oeste 11 Sudoeste 0 972.8 -0.8 91
2019-07-09 04:00:00 17.1 7 Oeste 11 Oeste 0 973.5 0 88
2019-07-09 03:00:00 17.5 5 Oeste 11 Sudoeste 0 973.2 0.9 87
2019-07-09 02:00:00 17.5 6 Oeste 11 Sudoeste 0 973.6 1.8 88
2019-07-09 01:00:00 17.3 5 Oeste 13 Sur 0 973.5 1.7 91
2019-07-09 00:00:00 17.8 3 Oeste 18 Norte 0 972.3 0 85
2019-07-08 23:00:00 18.8 12 Norte 28 Sudeste 0 971.8 -0.6 83
2019-07-08 22:00:00 18.9 11 Este 24 Nordeste 2.4 971.8 1.5 80
2019-07-08 21:00:00 19.6 21 Norte 30 Sudoeste 4.7 972.3 3 92
2019-07-08 20:00:00 20 10 Oeste 21 Nordeste 2.4 972.4 3.3 87
2019-07-08 19:00:00 21.2 12 Nordeste 26 Nordeste 0.2 970.3 0.7 79
2019-07-08 18:00:00 22 11 Sudoeste 26 Sudoeste 0 969.3 -0.2 75
2019-07-08 17:00:00 22.2 17 Oeste 26 Oeste 0 969.1 -1.5 79
2019-07-08 16:00:00 24 13 Oeste 21 Sudoeste 0 969.6 -1.9 70
2019-07-08 15:00:00 25.6 6 Oeste 9 Oeste 0.5 969.5 -2.4 67
2019-07-08 14:00:00 27.6 3 Oeste 9 Oeste 0 970.6 -1.6 50
2019-07-08 13:00:00 26.8 6 Noroeste 11 Oeste 0 971.5 -0.9 52
2019-07-08 12:00:00 25.8 6 Oeste 15 Sudoeste 0 971.9 -0.5 57
2019-07-08 11:00:00 23.7 11 Oeste 21 Noroeste 0 972.2 -0.1 65
2019-07-08 10:00:00 21.7 12 Oeste 17 Oeste 0 972.4 0.3 73
2019-07-08 09:00:00 19.8 9 Oeste 15 Oeste 0 972.4 0.6 82
2019-07-08 08:00:00 18.5 5 Oeste 13 Sudoeste 0 972.3 0.6 87
2019-07-08 07:00:00 17.7 7 Oeste 13 Oeste 0 972.1 1.2 90
2019-07-08 06:00:00 18 9 Oeste 13 Sudoeste 0 971.8 -0.9 90
2019-07-08 05:00:00 18.3 4 Oeste 24 Sur 6.7 971.7 0 88
2019-07-08 04:00:00 18.8 8 Noroeste 22 Sudoeste 0.5 970.9 -0.8 84
2019-07-08 03:00:00 20.1 16 Sudoeste 24 Oeste 0 972.7 0.6 70
2019-07-08 02:00:00 19.9 12 Oeste 21 Oeste 0 971.7 1 72
2019-07-08 01:00:00 20.6 13 Oeste 26 Oeste 0 971.7 1.8 70
2019-07-08 00:00:00 21.6 9 Noroeste 21 Oeste 0 972.1 2.8 64
2019-07-07 23:00:00 22.9 14 Oeste 22 Noroeste 0 970.7 2 59
2019-07-07 22:00:00 24.7 15 Sudoeste 22 Sudoeste 0 969.9 1.5 54
2019-07-07 21:00:00 29 18 Nordeste 24 Nordeste 0 969.3 0.8 41
2019-07-07 20:00:00 31.2 11 Noroeste 28 Norte 0 968.7 -0.4 38
2019-07-07 19:00:00 32.3 15 Norte 24 Norte 0 968.4 -1.6 32
2019-07-07 18:00:00 34.4 5 Oeste 22 Nordeste 0 968.5 -2.6 22
2019-07-07 17:00:00 33.8 6 Oeste 17 Oeste 0 969.1 -3 24
2019-07-07 16:00:00 32.7 4 Oeste 13 Oeste 0 970 -2.6 25
2019-07-07 15:00:00 30.8 6 Oeste 11 Oeste 0 971.1 -2 30
2019-07-07 14:00:00 28.8 7 Oeste 15 Oeste 0 972.1 -1.6 37
2019-07-07 13:00:00 26.8 7 Oeste 17 Oeste 0 972.6 -1.4 47
2019-07-07 12:00:00 24.7 13 Oeste 18 Oeste 0 973.1 -0.8 53
2019-07-07 11:00:00 23.4 8 Oeste 21 Sudoeste 0 973.7 0 57
2019-07-07 10:00:00 22 12 Oeste 18 Oeste 0 974 0.5 64
2019-07-07 09:00:00 21 11 Oeste 17 Sudoeste 0 973.9 1 68
2019-07-07 08:00:00 19.6 8 Oeste 17 Oeste 0 973.7 0.9 74
2019-07-07 07:00:00 18.7 10 Oeste 21 Sudoeste 0 973.5 0.5 78
2019-07-07 06:00:00 19 12 Oeste 21 Oeste 0 972.9 0 76
2019-07-07 05:00:00 19.3 12 Oeste 24 Oeste 0 972.8 0 75
2019-07-07 04:00:00 19.6 11 Oeste 24 Sudoeste 0 973 0.6 74
2019-07-07 03:00:00 19.8 16 Oeste 24 Oeste 0 972.9 0.9 73
2019-07-07 02:00:00 20.6 11 Oeste 17 Oeste 0 972.8 1.5 70
2019-07-07 01:00:00 21.6 8 Oeste 18 Oeste 0 972.4 2.2 67
2019-07-07 00:00:00 22.7 9 Oeste 21 Oeste 0 972 2.8 58
2019-07-06 23:00:00 23.8 9 Oeste 18 Oeste 0 971.3 3.1 55
2019-07-06 22:00:00 26.2 10 Oeste 17 Oeste 0 970.2 2.6 48
2019-07-06 21:00:00 30 5 Oeste 24 Norte 0 969.2 1 36
2019-07-06 20:00:00 32.6 12 Norte 22 Norte 0 968.2 -0.5 36
2019-07-06 19:00:00 34.7 10 Oeste 17 Sudoeste 0 967.6 -1.7 22
2019-07-06 18:00:00 35.8 6 Noroeste 17 Este 0 968.2 -1.9 21
2019-07-06 17:00:00 35.5 10 Norte 17 Norte 0 968.7 -2.2 22
2019-07-06 16:00:00 34.7 11 Este 21 Nordeste 0 969.3 -2.2 22
2019-07-06 15:00:00 34 10 Este 21 Nordeste 0 970.1 -1.9 22
2019-07-06 14:00:00 32.1 8 Norte 17 Nordeste 0 970.9 -1.8 28
2019-07-06 13:00:00 29.9 5 Norte 13 Este 0 971.5 -1.7 37
2019-07-06 12:00:00 27.3 6 Sudoeste 13 Noroeste 0 972 -1.3 50
2019-07-06 11:00:00 25.5 8 Oeste 21 Oeste 0 972.7 -0.5 59
2019-07-06 10:00:00 23.5 9 Oeste 21 Oeste 0 973.2 -0.1 66
2019-07-06 09:00:00 22.1 10 Oeste 18 Oeste 0 973.3 0.4 72
2019-07-06 08:00:00 20.8 8 Oeste 15 Oeste 0 973.2 0.8 77
2019-07-06 07:00:00 19.9 9 Oeste 17 Oeste 0 973.3 1.1 80
2019-07-06 06:00:00 20.5 8 Oeste 17 Sudoeste 0 972.9 0.7 76
2019-07-06 05:00:00 21 9 Oeste 17 Oeste 0 972.4 0.2 72
2019-07-06 04:00:00 21.4 4 Oeste 11 Oeste 0 972.2 0.1 75
2019-07-06 03:00:00 22.2 7 Oeste 15 Oeste 0 972.2 0.5 74
2019-07-06 02:00:00 23.2 10 Oeste 13 Oeste 0 972.2 0.9 71
2019-07-06 01:00:00 24.2 10 Oeste 15 Oeste 0 972.1 1.8 65
2019-07-06 00:00:00 24.6 6 Oeste 11 Sudeste 0 971.7 1.5 64
2019-07-05 23:00:00 27.7 8 Sudeste 18 Nordeste 0 971.3 1.9 48
2019-07-05 22:00:00 29 6 Este 22 Norte 0 970.3 0.9 44
2019-07-05 21:00:00 31.4 15 Norte 33 Norte 0 970.2 0.1 36
2019-07-05 20:00:00 35.9 7 Este 24 Nordeste 0 969.4 -1.5 19
2019-07-05 19:00:00 36.3 9 Nordeste 26 Este 0 969.4 -2.1 20
2019-07-05 18:00:00 35.8 14 Nordeste 22 Este 0 970.1 -2.2 22
2019-07-05 17:00:00 35.9 11 Nordeste 21 Este 0 970.9 -2.1 22
2019-07-05 16:00:00 35.3 8 Este 21 Nordeste 0 971.5 -1.8 24
2019-07-05 15:00:00 33.5 7 Sudoeste 21 Este 0 972.3 -1.4 27
2019-07-05 14:00:00 31.9 12 Este 24 Nordeste 0 973 -- 31
2019-07-05 13:00:00 32 14 Nordeste 21 Este 0 973.3 -- 30
2019-07-05 12:00:00 30.3 13 Nordeste -- -- -- 973.7 -- 34
2019-07-05 11:00:00 -- -- -- -- -- -- -- -- --
2019-07-05 10:00:00 -- -- -- -- -- -- -- -- --
2019-07-05 09:00:00 -- -- -- -- -- -- -- -- --
2019-07-05 08:00:00 23.3 13 Nordeste 17 Este 0 974.1 0.4 52
2019-07-05 07:00:00 21.7 8 Nordeste 13 Este 0 973.7 0 54
2019-07-05 06:00:00 22.8 8 Este 17 Este 0 973.6 -0.4 50
2019-07-05 05:00:00 22.6 4 Este 15 Nordeste 0 973.7 -0.2 53
2019-07-05 04:00:00 22.9 13 Nordeste 22 Nordeste 0 973.7 0.5 51
2019-07-05 03:00:00 24.5 15 Nordeste 24 Este 0 974 1.5 42
2019-07-05 02:00:00 24.6 14 Nordeste 30 Este 0 973.9 2.1 40
2019-07-05 01:00:00 26.8 19 Este 26 Este 0 973.2 2 33
2019-07-05 00:00:00 27.7 12 Este 37 Este 0 972.5 1.8 32
2019-07-04 23:00:00 30.4 24 Este 35 Este 0 971.8 1.3 28
2019-07-04 22:00:00 28.7 15 Este 21 Este 0 971.2 0.6 29
2019-07-04 21:00:00 33.2 15 Este 30 Este 0 970.7 -0.4 19
2019-07-04 20:00:00 33.8 18 Este 30 Este 0 970.5 -1 19
2019-07-04 19:00:00 34.1 25 Este 35 Este 0 970.6 -1.3 18
2019-07-04 18:00:00 34.2 24 Este 35 Este 0 971.1 -1.3 19
2019-07-04 17:00:00 34.1 23 Este 37 Este 0 971.5 -1.5 21
2019-07-04 16:00:00 34.4 24 Este 35 Este 0 971.9 -1.6 20
2019-07-04 15:00:00 33.7 24 Este 39 Este 0 972.4 -1.5 22
2019-07-04 14:00:00 32.5 29 Este 41 Este 0 973 -1.1 25
2019-07-04 13:00:00 31.4 33 Este 45 Este 0 973.5 -0.9 29
2019-07-04 12:00:00 30.1 33 Este 41 Nordeste 0 973.9 -0.7 31
2019-07-04 11:00:00 28.4 27 Este 35 Este 0 974.1 -0.4 34
2019-07-04 10:00:00 26.5 21 Este 28 Este 0 974.4 0.4 44
2019-07-04 09:00:00 22.1 3 Sudeste 5 Sudeste 0 974.6 1.1 66
2019-07-04 08:00:00 19.4 0 Calma 8 Oeste 0 974.5 0.9 80
2019-07-04 07:00:00 17.2 5 Oeste 5 Oeste 0 974 0.5 90
2019-07-04 06:00:00 17.9 0 Calma 4 Sudoeste 0 973.5 0.1 88
2019-07-04 05:00:00 18.3 2 Nordeste 5 Oeste 0 973.6 0.2 85
2019-07-04 04:00:00 19.6 0 Calma 4 Oeste 0 973.5 0 81
2019-07-04 03:00:00 20.5 3 Norte 15 Oeste 0 973.4 0.4 74
2019-07-04 02:00:00 22.2 12 Oeste 17 Sudoeste 0 973.4 0.8 70
2019-07-04 01:00:00 21.9 8 Oeste 11 Oeste 0 973.5 1.2 66
2019-07-04 00:00:00 23.3 5 Oeste 15 Sudoeste 0 973 1.2 59
2019-07-03 23:00:00 24.3 7 Oeste 18 Oeste 0 972.6 2.3 64
2019-07-03 22:00:00 25.7 17 Oeste 30 Sudoeste 0 972.3 2.6 60
2019-07-03 21:00:00 27.1 11 Oeste 18 Sudoeste 0 971.8 1.6 48
2019-07-03 20:00:00 29.3 7 Oeste 24 Sudoeste 0 970.3 -0.1 36
2019-07-03 19:00:00 32.2 9 Nordeste 18 Sudeste 0 969.7 -0.7 26
2019-07-03 18:00:00 32.1 13 Este 24 Este 0 970.2 -1 28
2019-07-03 17:00:00 33.1 16 Este 30 Este 0 970.4 -1.9 25
2019-07-03 16:00:00 32.2 24 Este 39 Nordeste 0 970.4 -2.7 28
2019-07-03 15:00:00 32.4 26 Este 35 Este 0 971.2 -2.2 30
2019-07-03 14:00:00 30.7 23 Este 33 Este 0 972.3 -1.6 36
2019-07-03 13:00:00 28.7 20 Este 32 Este 0 973.1 -1.2 42
2019-07-03 12:00:00 27.7 18 Este 26 Nordeste 0 973.4 -0.7 47
2019-07-03 11:00:00 23 4 Norte 9 Noroeste 0 973.9 0.2 63
2019-07-03 10:00:00 21.5 8 Oeste 13 Oeste 0 974.3 0.8 69
2019-07-03 09:00:00 20.5 8 Oeste 15 Oeste 0 974.1 0.6 73
2019-07-03 08:00:00 19.3 9 Oeste 15 Oeste 0 973.7 0 78
2019-07-03 07:00:00 18 10 Oeste 13 Oeste 0 973.5 -0.1 83
2019-07-03 06:00:00 18.3 6 Oeste 13 Oeste 0 973.5 -0.3 82
2019-07-03 05:00:00 18.5 8 Oeste 17 Oeste 0 973.7 -0.3 81
2019-07-03 04:00:00 18.7 9 Oeste 15 Oeste 0 973.6 -0.7 80
2019-07-03 03:00:00 19.2 8 Oeste 17 Oeste 0 973.8 0 79
2019-07-03 02:00:00 19.8 7 Oeste 15 Oeste 0 974 0.1 75
2019-07-03 01:00:00 20.9 6 Oeste 18 Oeste 0 974.3 1.2 71
2019-07-03 00:00:00 21.4 8 Oeste 18 Oeste 0 973.8 1.7 69
2019-07-02 23:00:00 22.1 7 Noroeste 17 Sudoeste 0 973.9 2.3 65
2019-07-02 22:00:00 23.7 9 Oeste 21 Oeste 0 973.1 1.9 60
2019-07-02 21:00:00 26.6 9 Oeste 15 Noroeste 0 972.1 0.4 52
2019-07-02 20:00:00 27.7 8 Noroeste 24 Noroeste 0 971.6 -0.6 49
2019-07-02 19:00:00 30.6 12 Oeste 17 Oeste 0 971.2 -1.7 41
2019-07-02 18:00:00 31.4 8 Oeste 15 Sudoeste 0 971.7 -2 35
2019-07-02 17:00:00 30.7 7 Oeste 17 Sudoeste 0 972.2 -2.4 35
2019-07-02 16:00:00 29.9 8 Oeste 17 Norte 0 972.9 -2.3 36
2019-07-02 15:00:00 28.7 9 Nordeste 21 Este 0 973.7 -2.1 38
2019-07-02 14:00:00 27 5 Norte 13 Nordeste 0 974.6 -1.5 43
2019-07-02 13:00:00 25.3 6 Sudoeste 13 Oeste 0 975.2 -1.4 49
2019-07-02 12:00:00 23.2 9 Oeste 18 Sudoeste 0 975.8 -1 55
2019-07-02 11:00:00 21.7 10 Oeste 17 Oeste 0 976.1 -0.7 60
2019-07-02 10:00:00 20.7 11 Oeste 18 Oeste 0 976.6 -0.2 63
2019-07-02 09:00:00 19.4 13 Oeste 24 Oeste 0 976.8 -0.3 69
2019-07-02 08:00:00 17.8 10 Oeste 18 Oeste 0 976.8 -0.5 77
2019-07-02 07:00:00 17.9 14 Oeste 22 Oeste 0 976.8 -0.8 77
2019-07-02 06:00:00 18.1 12 Oeste 17 Oeste 0 977.1 -0.5 77
2019-07-02 05:00:00 17.9 11 Oeste 18 Oeste 0 977.3 -0.5 78
2019-07-02 04:00:00 17.9 10 Oeste 21 Oeste 0 977.6 0.4 78
2019-07-02 03:00:00 17.7 13 Oeste 24 Oeste 0 977.6 0 78
2019-07-02 02:00:00 17.8 15 Oeste 26 Sudoeste 0 977.8 0.1 75
2019-07-02 01:00:00 18.3 13 Oeste 24 Oeste 0 977.2 -1.1 74
2019-07-02 00:00:00 18.7 13 Oeste 18 Oeste 0 977.6 -0.7 71
2019-07-01 23:00:00 18.9 6 Noroeste 13 Oeste 0.1 977.7 0 70
2019-07-01 22:00:00 19.6 6 Oeste 18 Oeste 0 978.3 1.4 62
2019-07-01 21:00:00 20.5 12 Oeste 22 Oeste 0 978.3 2.2 58
2019-07-01 20:00:00 21.3 10 Oeste 28 Noroeste 0 977.7 1.8 58
2019-07-01 19:00:00 22 13 Noroeste 28 Oeste 0 976.9 1 57
2019-07-01 18:00:00 24.4 13 Noroeste 32 Noroeste 0 976.1 0 52
2019-07-01 17:00:00 26.3 15 Noroeste 28 Norte 0 975.9 -0.8 47
2019-07-01 16:00:00 27.3 15 Oeste 28 Noroeste 0 975.9 -1.4 45
2019-07-01 15:00:00 26.9 17 Oeste 30 Oeste 0 976.1 -1.5 46
2019-07-01 14:00:00 25.6 14 Oeste 24 Oeste 0 976.7 -1.3 49
2019-07-01 13:00:00 24.1 14 Oeste 26 Oeste 0 977.3 -0.7 54
2019-07-01 12:00:00 23.1 12 Oeste 26 Oeste 0 977.6 -0.6 57
2019-07-01 11:00:00 22.1 14 Oeste 24 Oeste 0 978 -0.2 60
2019-07-01 10:00:00 21.2 14 Oeste 22 Sudoeste 0 978 -0.1 64
2019-07-01 09:00:00 20.6 12 Oeste 18 Oeste 0 978.2 0.3 68
2019-07-01 08:00:00 19.5 12 Oeste 22 Oeste 0 978.2 0.7 71
2019-07-01 07:00:00 18.6 14 Oeste 21 Sudoeste 0 978.1 0.7 74
2019-07-01 06:00:00 18.3 12 Oeste 22 Oeste 0 977.9 1.1 75
2019-07-01 05:00:00 18.1 15 Oeste 24 Oeste 0 977.5 1.1 76
2019-07-01 04:00:00 18.1 17 Oeste 28 Oeste 0 977.4 1.8 75
2019-07-01 03:00:00 18.7 17 Oeste 32 Oeste 0 976.8 2.1 74
2019-07-01 02:00:00 19.6 19 Oeste 30 Oeste 0 976.4 2.9 68
2019-07-01 01:00:00 21.5 13 Oeste 28 Oeste 0 975.6 3.1 63
2019-07-01 00:00:00 23.9 12 Oeste 30 Oeste 0 974.7 3.6 57
2019-06-30 23:00:00 27.3 9 Oeste 15 Noroeste 0 973.5 3 47
2019-06-30 22:00:00 29.5 7 Sudoeste 15 Este 0 972.5 1.7 38
2019-06-30 21:00:00 29.9 4 Oeste 18 Este 0 971.1 0.1 42
2019-06-30 20:00:00 35.7 13 Este 41 Nordeste 0.4 970.5 -1 23
2019-06-30 19:00:00 35.4 6 Este 17 Este 0 970.8 -1.5 26
2019-06-30 18:00:00 34.6 5 Norte 24 Este 0 971 -2.1 27
2019-06-30 17:00:00 37.7 18 Nordeste 30 Este 0 971.5 -2.2 12
2019-06-30 16:00:00 37.6 16 Este 32 Este 0 972.3 -2.2 15
2019-06-30 15:00:00 35.7 19 Este 33 Este 0 973.1 -2.1 19
2019-06-30 14:00:00 33.6 24 Este 32 Este 0 973.7 -2 23
2019-06-30 13:00:00 30.9 19 Este 28 Este 0 974.5 -1.7 29
2019-06-30 12:00:00 27.1 9 Este 15 Este 0 975.2 -0.8 42
2019-06-30 11:00:00 24 5 Oeste 13 Sudoeste 0 975.7 -0.3 55
2019-06-30 10:00:00 21.7 9 Oeste 15 Noroeste 0 976.2 0.4 64
2019-06-30 09:00:00 19.8 10 Oeste 17 Oeste 0 976 0.4 70
2019-06-30 08:00:00 18.3 7 Oeste 13 Oeste 0 976 0.6 76
2019-06-30 07:00:00 17.4 10 Oeste 18 Oeste 0 975.8 0.9 81
2019-06-30 06:00:00 17.8 11 Oeste 22 Oeste 0 975.6 0.9 79
2019-06-30 05:00:00 18.2 11 Oeste 22 Oeste 0 975.4 0.7 78
2019-06-30 04:00:00 18.6 13 Oeste 22 Oeste 0 974.9 0.4 76
2019-06-30 03:00:00 19.2 14 Oeste 30 Oeste 0 974.7 0.8 74
2019-06-30 02:00:00 20.2 17 Oeste 32 Oeste 0 974.7 1.8 71
2019-06-30 01:00:00 21.1 19 Oeste 32 Oeste 0 974.5 3.7 69
2019-06-30 00:00:00 23.5 18 Oeste 30 Oeste 0 973.9 4 60
2019-06-29 23:00:00 28 12 Oeste 22 Noroeste 0 972.9 3.1 42
2019-06-29 22:00:00 31.9 2 Nordeste 30 Norte 0 970.8 1.2 31
2019-06-29 21:00:00 38.4 10 Este 21 Este 0 969.9 0 11
2019-06-29 20:00:00 40.7 16 Este 24 Este 0 969.8 -0.4 8
2019-06-29 19:00:00 41.6 17 Este 24 Este 0 969.6 -0.9 7
2019-06-29 18:00:00 41.7 20 Este 35 Nordeste 0 969.9 -1 7
2019-06-29 17:00:00 41.7 25 Este 41 Este 0 970.2 -1.5 8
2019-06-29 16:00:00 41.5 23 Nordeste 41 Este 0 970.5 -1.9 8
2019-06-29 15:00:00 41 23 Este 39 Nordeste 0 970.9 -2 9
2019-06-29 14:00:00 39 16 Nordeste 26 Este 0 971.7 -1.4 10
2019-06-29 13:00:00 36.6 14 Nordeste 22 Este 0 972.4 -0.8 14
2019-06-29 12:00:00 34.4 16 Este 22 Este 0 972.9 -0.3 17
2019-06-29 11:00:00 31.6 17 Este 24 Este 0 973.1 -0.2 23
2019-06-29 10:00:00 28.3 18 Este 24 Este 0 973.2 0.1 32
2019-06-29 09:00:00 24.1 5 Norte 8 Norte 0 973.2 0.4 51
2019-06-29 08:00:00 19.5 0 Calma 5 Oeste 0 973.3 0.6 67
2019-06-29 07:00:00 16.7 4 Sudoeste 9 Oeste 0 973.1 0.3 81
2019-06-29 06:00:00 17.3 8 Oeste 9 Sudoeste 0 972.8 0 82
2019-06-29 05:00:00 18.1 0 Calma 4 Nordeste 0 972.7 -0.4 81
2019-06-29 04:00:00 19.3 2 Oeste 8 Oeste 0 972.8 -0.2 77
2019-06-29 03:00:00 20.8 6 Oeste 8 Oeste 0 972.8 0 69
2019-06-29 02:00:00 22 0 Calma 9 Oeste 0 973.1 0.5 67
2019-06-29 01:00:00 23.3 0 Calma 8 Norte 0 973 1.1 60
2019-06-29 00:00:00 25.6 2 Nordeste 5 Nordeste 0 972.8 1.1 45
2019-06-28 23:00:00 26.3 0 Calma 11 Este 0 972.6 1.2 36
2019-06-28 22:00:00 29.3 10 Nordeste 13 Nordeste 0 971.9 0.4 28
2019-06-28 21:00:00 36.1 10 Este 24 Este 0 971.7 -0.1 14
2019-06-28 20:00:00 39.6 22 Este 35 Este 0 971.4 -0.9 10
2019-06-28 19:00:00 40.5 25 Este 39 Este 0 971.5 -1.5 10
2019-06-28 18:00:00 40.9 26 Este 33 Este 0 971.8 -1.9 11
2019-06-28 17:00:00 40.8 24 Este 32 Este 0 972.3 -2.2 11
2019-06-28 16:00:00 40.1 19 Este 30 Este 0 973 -2.3 11
2019-06-28 15:00:00 38.8 18 Este 28 Este 0 973.7 -2.2 14
2019-06-28 14:00:00 36.7 13 Este 22 Este 0 974.5 -1.6 18
2019-06-28 13:00:00 34.4 13 Este 22 Este 0 975.3 -1.2 22
2019-06-28 12:00:00 32 12 Nordeste 18 Nordeste 0 975.9 -0.4 25
2019-06-28 11:00:00 30.1 12 Este 15 Este 0 976.1 0 28
2019-06-28 10:00:00 26 6 Oeste 8 Oeste 0 976.5 0.7 39
2019-06-28 09:00:00 22.5 3 Oeste 8 Oeste 0 976.3 0.9 56
2019-06-28 08:00:00 19.6 2 Oeste 5 Oeste 0 976.1 0.9 68
2019-06-28 07:00:00 17.5 0 Calma 5 Oeste 0 975.8 0.6 66
2019-06-28 06:00:00 18.9 4 Oeste 9 Oeste 0 975.4 0.3 69
2019-06-28 05:00:00 21.8 3 Este 13 Este 0 975.2 0.1 54
2019-06-28 04:00:00 24 10 Este 15 Este 0 975.2 0.4 38
2019-06-28 03:00:00 25.5 13 Este 21 Nordeste 0 975.1 0.8 34
2019-06-28 02:00:00 27.8 11 Nordeste 26 Nordeste 0 975.1 1.1 30
2019-06-28 01:00:00 29.4 22 Nordeste 30 Nordeste 0 974.8 1.9 27
2019-06-28 00:00:00 28.8 17 Este 30 Nordeste 0 974.3 1.9 27
2019-06-27 23:00:00 30.5 20 Nordeste 26 Norte 0 974 2 24
2019-06-27 22:00:00 32 14 Nordeste 22 Este 0 972.9 0.9 25
2019-06-27 21:00:00 36.8 20 Este 45 Este 0 972.4 0.1 16
2019-06-27 20:00:00 36.8 20 Este 45 Este 0 972 -1 19
2019-06-27 19:00:00 37.9 28 Este 52 Este 0 972 -1.8 15
2019-06-27 18:00:00 37.6 36 Este 52 Este 0 972.3 -2.2 15
2019-06-27 17:00:00 38.3 41 Este 55 Este 0 973 -2.5 14
2019-06-27 16:00:00 36.5 32 Este 50 Este 0 973.8 -2.7 17
2019-06-27 15:00:00 34 32 Este 45 Este 0 974.5 -2.5 24
2019-06-27 14:00:00 31.9 24 Este 37 Este 0 975.5 -1.8 27
2019-06-27 13:00:00 30.1 21 Nordeste 35 Nordeste 0 976.5 -1.2 32
2019-06-27 12:00:00 28.9 14 Este 24 Este 0 977 -0.7 34
2019-06-27 11:00:00 27 19 Este 24 Este 0 977.3 0 37
2019-06-27 10:00:00 25 12 Este 21 Este 0 977.7 0.4 43
2019-06-27 09:00:00 23.8 12 Este 18 Este 0 977.7 0.7 47
2019-06-27 08:00:00 22.7 14 Este 17 Este 0 977.3 0.8 48
2019-06-27 07:00:00 22 12 Nordeste 21 Nordeste 0 977.3 1.1 49
2019-06-27 06:00:00 23.4 19 Nordeste 30 Nordeste 0 977 0.6 44
2019-06-27 05:00:00 24.1 22 Nordeste 33 Este 0 976.5 0.9 42
2019-06-27 04:00:00 25.4 27 Este 45 Este 0 976.2 1 38
2019-06-27 03:00:00 26.1 30 Nordeste 41 Nordeste 0 976.4 1.8 36
2019-06-27 02:00:00 27 24 Este 33 Este 0 975.6 2.2 34
2019-06-27 01:00:00 28.7 16 Este 39 Este 0 975.2 2.6 31
2019-06-27 00:00:00 29.9 23 Este 42 Este 0 974.6 2.8 29
2019-06-26 23:00:00 30.8 28 Este 42 Este 0 973.4 2.2 28
2019-06-26 22:00:00 32.4 22 Este 48 Este 0 972.6 1.6 26
2019-06-26 21:00:00 34.9 37 Este 63 Este 0 971.8 0.5 22
2019-06-26 20:00:00 35.7 40 Este 55 Este 0 971.2 -0.7 22
2019-06-26 19:00:00 35.6 33 Este 58 Este 0 971 -1.3 22
2019-06-26 18:00:00 36.6 33 Este 50 Este 0 971.3 -1.4 20
2019-06-26 17:00:00 36.1 40 Este 55 Este 0 971.9 -1.4 21
2019-06-26 16:00:00 35.6 39 Este 58 Este 0 972.3 -1.7 21
2019-06-26 15:00:00 33.6 37 Este 59 Este 0 972.7 -1.6 24
2019-06-26 14:00:00 33.2 40 Este 58 Este 0 973.3 -1.7 26
2019-06-26 13:00:00 32.2 43 Este 61 Este 0 974 -1.3 28
2019-06-26 12:00:00 31.1 39 Este 48 Este 0 974.3 -0.3 30
2019-06-26 11:00:00 29.2 28 Este 35 Nordeste 0 975 0.5 41
2019-06-26 10:00:00 27.1 22 Nordeste 37 Este 0 975.3 0.9 49
2019-06-26 09:00:00 24.6 23 Este 39 Este 0 974.6 0.5 59
2019-06-26 08:00:00 22.5 22 Este 41 Este 0 974.5 0.7 69
2019-06-26 07:00:00 21.3 28 Nordeste 39 Este 0 974.4 0.5 74
2019-06-26 06:00:00 21.7 27 Este 52 Este 0 974.1 0.7 73
2019-06-26 05:00:00 22.5 27 Este 50 Este 0 973.8 0.5 68
2019-06-26 04:00:00 23.6 32 Este 42 Este 0 973.9 1 61
2019-06-26 03:00:00 25.1 32 Este 42 Este 0 973.4 0.9 52
2019-06-26 02:00:00 25.6 22 Este 32 Este 0 973.3 1.5 49
2019-06-26 01:00:00 26.3 19 Este 30 Este 0 972.9 2 46
2019-06-26 00:00:00 27.7 15 Nordeste 21 Nordeste 0 972.5 2 50
2019-06-25 23:00:00 28.2 13 Este 18 Este 0 971.8 1.5 47
2019-06-25 22:00:00 30 12 Este 39 Este 0 970.9 0.6 42
2019-06-25 21:00:00 33.1 26 Este 45 Este 0 970.5 -0.2 32
2019-06-25 20:00:00 34.5 28 Este 41 Este 0 970.3 -1.1 28
2019-06-25 19:00:00 34.9 28 Este 39 Este 0 970.3 -1.8 27
2019-06-25 18:00:00 34.9 26 Este 37 Este 0 970.7 -2.1 26
2019-06-25 17:00:00 33.9 27 Este 39 Nordeste 0 971.4 -2 28
2019-06-25 16:00:00 32.6 26 Este 39 Este 0 972.1 -2 31
2019-06-25 15:00:00 31.1 25 Este 33 Este 0 972.8 -1.7 32
2019-06-25 14:00:00 29.2 15 Este 26 Este 0 973.4 -1.2 37
2019-06-25 13:00:00 27.1 12 Este 22 Este 0 974.1 -1 42
2019-06-25 12:00:00 25.1 11 Este 18 Este 0 974.5 -0.4 48
2019-06-25 11:00:00 21.8 3 Noroeste 8 Noroeste 0 974.6 0 61
2019-06-25 10:00:00 19.1 3 Oeste 8 Oeste 0 975.1 0.9 73
2019-06-25 09:00:00 17.5 7 Oeste 9 Oeste 0 974.9 1.1 79
2019-06-25 08:00:00 16.4 3 Oeste 8 Oeste 0 974.6 0.9 84
2019-06-25 07:00:00 16.7 5 Oeste 9 Sudoeste 0 974.2 0.4 84
2019-06-25 06:00:00 17.3 7 Oeste 11 Oeste 0 973.8 -0.2 79
2019-06-25 05:00:00 17.7 6 Oeste 11 Oeste 0 973.7 -0.4 79
2019-06-25 04:00:00 18.1 6 Oeste 11 Oeste 0 973.8 -0.2 75
2019-06-25 03:00:00 19.1 9 Oeste 15 Oeste 0 974 0.7 70
2019-06-25 02:00:00 19.8 10 Oeste 17 Oeste 0 974.1 2.4 67
2019-06-25 01:00:00 20.7 8 Oeste 28 Sudoeste 0 974 4.4 66
2019-06-25 00:00:00 22.3 21 Oeste 41 Oeste 0 973.3 4.4 60
2019-06-24 23:00:00 24.2 23 Oeste 37 Oeste 0 971.7 3 55
2019-06-24 22:00:00 29.1 12 Este 30 Este 0 969.6 0.9 24
2019-06-24 21:00:00 30.8 20 Este 33 Sudeste 0 968.9 0.2 22
2019-06-24 20:00:00 32.1 23 Este 37 Este 0 968.7 -0.2 21
2019-06-24 19:00:00 32.9 28 Este 46 Este 0 968.7 -0.7 20
2019-06-24 18:00:00 32.9 28 Este 42 Este 0 968.7 -1.5 22
2019-06-24 17:00:00 32.8 29 Este 46 Este 0 968.9 -1.5 22
2019-06-24 16:00:00 31.8 30 Este 42 Este 0 969.4 -1.6 25
2019-06-24 15:00:00 29.5 25 Este 42 Este 0 970.2 -0.6 29
2019-06-24 14:00:00 27.4 29 Este 45 Este 0 970.4 -0.8 31
2019-06-24 13:00:00 27.5 33 Este 50 Este 0 971 -0.2 32
2019-06-24 12:00:00 28.1 32 Este 46 Este 0 970.8 -0.6 31
2019-06-24 11:00:00 26.7 31 Este 50 Este 0 971.2 -0.2 34
2019-06-24 10:00:00 26.1 32 Este 45 Este 0 971.2 0.1 36
2019-06-24 09:00:00 23.5 22 Nordeste 30 Nordeste 0 971.4 0.9 45
2019-06-24 08:00:00 21.9 21 Nordeste 28 Nordeste 0 971.4 1 46
2019-06-24 07:00:00 20.2 14 Nordeste 17 Nordeste 0 971.1 0.7 53
2019-06-24 06:00:00 21.4 13 Este 26 Este 0 970.5 0.1 48
2019-06-24 05:00:00 21.1 12 Nordeste 17 Este 0 970.4 0.2 49
2019-06-24 04:00:00 20.6 3 Este 9 Este 0 970.4 0.4 70
2019-06-24 03:00:00 22.1 0 Calma 15 Sudoeste 0 970.4 0.7 67
2019-06-24 02:00:00 22.9 11 Oeste 15 Oeste 0 970.2 1.2 63
2019-06-24 01:00:00 23.7 8 Oeste 13 Oeste 0 970 1.6 61
2019-06-24 00:00:00 24.8 11 Sudoeste 18 Oeste 0 969.7 1.5 58
2019-06-23 23:00:00 25.3 9 Sudoeste 18 Oeste 0 969 1.2 55
2019-06-23 22:00:00 25.9 3 Norte 8 Oeste 0 968.4 0.9 61
2019-06-23 21:00:00 28.1 6 Oeste 11 Oeste 0 968.2 0.6 53
2019-06-23 20:00:00 31.1 6 Oeste 15 Oeste 0 967.8 -0.5 38
2019-06-23 19:00:00 33.6 9 Sudoeste 24 Este 0 967.5 -1.5 25
2019-06-23 18:00:00 35.4 18 Nordeste 28 Nordeste 0 967.6 -1.9 22
2019-06-23 17:00:00 34.1 10 Este 26 Nordeste 0 968.3 -1.7 25
2019-06-23 16:00:00 33.1 12 Nordeste 28 Nordeste 0 969 -1.5 27
2019-06-23 15:00:00 32.1 18 Este 26 Este 0 969.5 -1.4 30
2019-06-23 14:00:00 30.5 14 Nordeste 24 Nordeste 0 970 -1.1 34
2019-06-23 13:00:00 28.7 12 Nordeste 22 Nordeste 0 970.5 -0.8 41
2019-06-23 12:00:00 27.7 11 Nordeste 24 Nordeste 0 970.9 -0.2 44
2019-06-23 11:00:00 26.8 13 Este 22 Este 0 971.1 0.2 47
2019-06-23 10:00:00 24.1 20 Este 30 Este 0 971.3 0.7 56
2019-06-23 09:00:00 21.4 19 Nordeste 26 Este 0 971.1 1.1 66
2019-06-23 08:00:00 20.1 16 Nordeste 24 Nordeste 0 970.9 1.4 70
2019-06-23 07:00:00 20.1 17 Nordeste 24 Nordeste 0 970.6 1.1 70
2019-06-23 06:00:00 20.5 18 Nordeste 22 Nordeste 0 970 0.4 67
2019-06-23 05:00:00 20.5 16 Nordeste 24 Nordeste 0 969.5 -0.2 65
2019-06-23 04:00:00 20.8 17 Este 21 Este 0 969.5 -0.5 62
2019-06-23 03:00:00 20.6 4 Este 13 Este 0 969.6 -0.4 61
2019-06-23 02:00:00 20.4 10 Este 13 Este 0 969.7 -0.4 64
2019-06-23 01:00:00 20.9 9 Este 15 Este 0 970 0.4 62
2019-06-23 00:00:00 20.9 6 Nordeste 9 Nordeste 0 970 0.4 66
2019-06-22 23:00:00 23.1 4 Este 11 Sudeste 0 970.1 0.5 58
2019-06-22 22:00:00 24.9 7 Este -- -- 0 969.6 -0.1 56
2019-06-22 21:00:00 27.5 9 Este 21 Nordeste 0 969.6 -0.6 40
2019-06-22 20:00:00 29.1 17 Este 24 Este 0 969.6 -1.2 33
2019-06-22 19:00:00 30 17 Este 26 Este 0 969.7 -1.8 30
2019-06-22 18:00:00 29.6 12 Este 22 Este 0 970.2 -2 31
2019-06-22 17:00:00 29 14 Este 22 Este 0 970.8 -2.4 31
2019-06-22 16:00:00 28 14 Este 24 Este 0 971.5 -2.5 34
2019-06-22 15:00:00 26.6 13 Este 22 Este 0 972.2 -2.4 35
2019-06-22 14:00:00 25 17 Este 24 Este 0 973.2 -1.8 40
2019-06-22 13:00:00 22.9 12 Este 24 Este 0 974 -1.5 43
2019-06-22 12:00:00 21.1 8 Nordeste 15 Nordeste 0 974.6 -1.1 47
2019-06-22 11:00:00 18.9 6 Norte 9 Noroeste 0 975 -1 61
2019-06-22 10:00:00 16.4 7 Oeste 13 Oeste 0 975.5 -0.3 71
2019-06-22 09:00:00 14.1 10 Oeste 21 Oeste 0 975.7 0.1 79
2019-06-22 08:00:00 13.1 10 Oeste 13 Oeste 0 976 0 85
2019-06-22 07:00:00 11.6 5 Oeste 11 Sudoeste 0 975.8 -0.9 92
2019-06-22 06:00:00 11.6 11 Oeste 15 Oeste 0 975.6 -1.5 93
2019-06-22 05:00:00 11.8 7 Oeste 9 Oeste 0 976 -1.5 93
2019-06-22 04:00:00 12.2 7 Oeste 13 Sudoeste 0 976.7 -1.1 90
2019-06-22 03:00:00 12.5 6 Oeste 8 Oeste 0 977.1 -0.9 88
2019-06-22 02:00:00 13.3 5 Oeste -- -- 0 977.5 -0.4 87
2019-06-22 01:00:00 14.2 2 Noroeste 11 Sudoeste 0 977.8 0.7 82
2019-06-22 00:00:00 15.3 6 Sudoeste 9 Sudoeste 0 978 1.4 76
2019-06-21 23:00:00 16.4 6 Sudoeste 11 Norte 0 977.9 1.9 70
2019-06-21 22:00:00 17.9 2 Sudoeste 11 Norte 0 977.1 1.4 64
2019-06-21 21:00:00 20.1 8 Noroeste 22 Noroeste 0 976.6 0.9 54
2019-06-21 20:00:00 21.2 12 Noroeste 24 Norte 0 976 0.1 51
2019-06-21 19:00:00 20.9 9 Noroeste 22 Noroeste 0 975.7 -0.5 53
2019-06-21 18:00:00 22 12 Noroeste 26 Noroeste 0 975.7 -0.9 48
2019-06-21 17:00:00 22 13 Oeste 26 Oeste 0 975.9 -0.9 47
2019-06-21 16:00:00 21.7 11 Oeste 22 Oeste 0 976.2 -0.6 50
2019-06-21 15:00:00 21 9 Noroeste 22 Noroeste 0 976.6 -0.2 52
2019-06-21 14:00:00 19.8 10 Oeste 24 Oeste 0 976.8 0.3 59
2019-06-21 13:00:00 19.7 13 Oeste 22 Oeste 0 976.8 0.5 60
2019-06-21 12:00:00 18.8 14 Oeste 28 Oeste 0 976.8 0.8 62
2019-06-21 11:00:00 17.3 13 Oeste 24 Oeste 0 976.5 1.1 70
2019-06-21 10:00:00 17.1 10 Oeste 17 Oeste 0 976.3 1.5 76
2019-06-21 09:00:00 16.5 9 Noroeste -- -- 0 976 1.9 79
2019-06-21 08:00:00 15 -- -- -- -- 0 975.4 0.8 90
2019-06-21 07:00:00 14.6 -- -- -- -- 0 974.8 0.2 92
2019-06-21 06:00:00 14.5 -- -- -- -- 0.3 974.1 -0.8 91
2019-06-21 05:00:00 14.9 -- -- -- -- 0 974.6 -0.4 91
2019-06-21 04:00:00 15 -- -- -- -- 0 974.6 -0.4 92
2019-06-21 03:00:00 14.9 -- -- -- -- 1.1 974.9 0.3 92
2019-06-21 02:00:00 15.2 -- -- -- -- 2 975 1.3 93
2019-06-21 01:00:00 15.2 -- -- -- -- 3.1 975 1.1 92
2019-06-21 00:00:00 15.7 -- -- -- -- 0.6 974.6 0.6 90
2019-06-20 23:00:00 16 -- -- -- -- 0.3 973.7 0.6 90
2019-06-20 22:00:00 16.3 -- -- -- -- 0.6 973.9 0.9 90
2019-06-20 21:00:00 16.8 -- -- -- -- 0.2 974 1.4 86
2019-06-20 20:00:00 16.8 14 Oeste 21 Oeste 0.1 973.1 0.5 85
2019-06-20 19:00:00 17.8 6 Sur 22 Sudoeste 2.4 973 -0.2 79
2019-06-20 18:00:00 21.1 3 Sur 18 Noroeste 0 972.6 -0.4 59
2019-06-20 17:00:00 20.5 10 Noroeste 22 Noroeste 0.1 972.6 -0.6 66
2019-06-20 16:00:00 21.1 7 Noroeste 18 Oeste 0 973.2 -0.5 58
2019-06-20 15:00:00 22.8 11 Oeste 21 Sudoeste 0 973 -0.9 52
2019-06-20 14:00:00 22.5 9 Oeste 17 Oeste 0 973.2 -0.7 53
2019-06-20 13:00:00 21.5 10 Oeste 18 Oeste 0 973.7 -0.3 57
2019-06-20 12:00:00 20.7 10 Oeste 21 Sudoeste 0 973.9 -0.4 58
2019-06-20 11:00:00 19.8 13 Oeste 18 Oeste 0 973.9 -0.1 62
2019-06-20 10:00:00 18.7 11 Oeste 18 Oeste 0 974 0 68
2019-06-20 09:00:00 18.1 10 Oeste 15 Oeste 0 974.3 0.5 71
2019-06-20 08:00:00 17.5 8 Oeste 15 Oeste 0 974 0.4 73
2019-06-20 07:00:00 16.7 9 Oeste 18 Oeste 0 974 0.3 75
2019-06-20 06:00:00 16.7 7 Oeste 15 Oeste 0 973.8 0.3 76
2019-06-20 05:00:00 16.9 6 Oeste 11 Oeste 0 973.6 0 75
2019-06-20 04:00:00 17.1 7 Oeste 21 Oeste 0 973.7 0 75
2019-06-20 03:00:00 17.6 7 Oeste 21 Oeste 0 973.5 0.2 76
2019-06-20 02:00:00 18 10 Oeste 17 Oeste 0 973.6 1.1 73
2019-06-20 01:00:00 18.4 6 Oeste 17 Noroeste 0 973.7 2.8 71
2019-06-20 00:00:00 19.7 11 Oeste 18 Oeste 0 973.3 3.3 67
2019-06-19 23:00:00 21.4 8 Noroeste 18 Nordeste 0 972.5 2.7 61
2019-06-19 22:00:00 23 4 Oeste 21 Norte 0 970.9 1.3 56
2019-06-19 21:00:00 27.3 5 Noroeste 21 Oeste 0 970 0.2 34
2019-06-19 20:00:00 28.2 9 Noroeste 22 Oeste 0 969.8 -0.3 32
2019-06-19 19:00:00 28.6 12 Oeste 24 Noroeste 0 969.6 -0.8 30
2019-06-19 18:00:00 28.7 10 Oeste 28 Noroeste 0 969.8 -1 29
2019-06-19 17:00:00 28.3 13 Noroeste 24 Oeste 0 970.1 -1.2 29
2019-06-19 16:00:00 28.1 13 Noroeste 30 Oeste 0 970.4 -1.1 29
2019-06-19 15:00:00 27.9 15 Oeste 28 Noroeste 0 970.8 -0.7 32
2019-06-19 14:00:00 27.1 10 Oeste 28 Oeste 0 971.3 -0.2 35
2019-06-19 13:00:00 25.3 12 Oeste 21 Noroeste 0 971.5 -0.3 40
2019-06-19 12:00:00 25.8 12 Oeste 22 Oeste 0 971.5 -0.3 41
2019-06-19 11:00:00 24.3 11 Oeste 21 Norte 0 971.5 -0.1 46
2019-06-19 10:00:00 22.4 8 Oeste 11 Oeste 0 971.8 0.4 54
2019-06-19 09:00:00 20.3 2 Noroeste 5 Norte 0 971.8 0.7 58
2019-06-19 08:00:00 17 2 Nordeste 8 Norte 0 971.6 0.7 66
2019-06-19 07:00:00 16.3 6 Norte 15 Sudoeste 0 971.4 1 71
2019-06-19 06:00:00 18.3 8 Oeste 13 Oeste 0 971.1 0.8 64
2019-06-19 05:00:00 19.2 6 Sudoeste 11 Sudoeste 0 970.9 1.1 58
2019-06-19 04:00:00 18.9 9 Oeste 11 Oeste 0 970.4 1 59
2019-06-19 03:00:00 20.3 5 Noroeste 13 Oeste 0 970.3 0.8 54
2019-06-19 02:00:00 21.1 9 Oeste 11 Oeste 0 969.8 0.9 48
2019-06-19 01:00:00 23.1 9 Oeste 22 Oeste 0 969.4 1.6 40
2019-06-19 00:00:00 24.8 13 Oeste 24 Oeste 0 969.5 2.8 37
2019-06-18 23:00:00 26.2 14 Oeste 33 Oeste 0 968.9 2.7 33
2019-06-18 22:00:00 27.9 16 Oeste 30 Oeste 0 967.8 1.9 24
2019-06-18 21:00:00 32.2 10 Sudoeste 28 Sudoeste 0 966.7 0.8 11
2019-06-18 20:00:00 33.3 16 Sudoeste 32 Sudoeste 0 966.2 0.2 11
2019-06-18 19:00:00 33.9 18 Sur 37 Sur 0 965.9 -0.5 10
2019-06-18 18:00:00 34 24 Sur 37 Sur 0 965.9 -0.8 11
2019-06-18 17:00:00 34.3 17 Sur 41 Sur 0 966 -1.2 11
2019-06-18 16:00:00 33.8 21 Sur 45 Sur 0 966.4 -1.9 12
2019-06-18 15:00:00 32.1 17 Sur 45 Sudoeste 0 966.7 -2.7 12
2019-06-18 14:00:00 32.9 14 Sur 41 Este 0 967.2 -2.7 15
2019-06-18 13:00:00 30.9 30 Este 45 Este 0 968.3 -2.1 24
2019-06-18 12:00:00 27.4 26 Este 37 Este 0 969.4 -1.2 29
2019-06-18 11:00:00 25.5 25 Este 30 Este 0 969.9 -0.4 33
2019-06-18 10:00:00 24 19 Este 30 Este 0 970.4 0.3 36
2019-06-18 09:00:00 23.7 24 Este 30 Nordeste 0 970.6 0.6 37
2019-06-18 08:00:00 21.1 14 Nordeste 18 Nordeste 0 970.3 0.3 46
2019-06-18 07:00:00 18.1 11 Este 22 Nordeste 0 970.1 -0.6 57
2019-06-18 06:00:00 19.2 12 Nordeste 17 Nordeste 0 970 -0.3 56
2019-06-18 05:00:00 19.9 10 Este 17 Este 0 970 -0.5 57
2019-06-18 04:00:00 20.3 4 Sudeste 13 Sudeste 0 970.7 0.5 59
2019-06-18 03:00:00 20.8 13 Este 17 Este 0 970.3 0.6 52
2019-06-18 02:00:00 22.1 5 Sur 13 Sudoeste 0 970.5 1.2 50
2019-06-18 01:00:00 21.9 8 Oeste 11 Oeste 0 970.2 1.5 53
2019-06-18 00:00:00 22.3 5 Sudoeste 11 Oeste 0 969.7 1.1 44
2019-06-17 23:00:00 24.1 7 Oeste 11 Sudoeste 0 969.3 0.5 38
2019-06-17 22:00:00 26.2 9 Este 15 Este 0 968.7 -0.2 29
2019-06-17 21:00:00 28.8 9 Este 17 Este 0 968.6 -0.7 25
2019-06-17 20:00:00 31.1 12 Nordeste 18 Este 0 968.8 -1.3 21
2019-06-17 19:00:00 32.5 16 Nordeste 26 Nordeste 0 968.9 -2 17
2019-06-17 18:00:00 33.3 16 Nordeste 24 Este 0 969.3 -2.5 17
2019-06-17 17:00:00 32.8 11 Nordeste 28 Nordeste 0 970.1 -2.5 19
2019-06-17 16:00:00 31.7 15 Este 30 Este 0 970.9 -2.6 21
2019-06-17 15:00:00 30.3 14 Este 24 Este 0 971.8 -2.4 25
2019-06-17 14:00:00 28.8 13 Este 26 Este 0 972.6 -2.1 30
2019-06-17 13:00:00 27.3 17 Este 26 Este 0 973.5 -1.6 32
2019-06-17 12:00:00 25.3 13 Este 22 Sudeste -- 974.2 -1 40
2019-06-17 11:00:00 23.1 9 Este 15 Nordeste 0 974.7 -0.3 49
2019-06-17 10:00:00 20.5 4 Noroeste 9 Noroeste 0 975.1 0.4 60
2019-06-17 09:00:00 18.3 4 Oeste 13 Oeste 0 975.2 0.7 68
2019-06-17 08:00:00 16 10 Oeste 13 Oeste 0 975 0.7 74
2019-06-17 07:00:00 14 6 Oeste 9 Oeste 0 974.7 0.4 85
2019-06-17 06:00:00 14.7 9 Oeste 13 Sudoeste 0 974.5 0 79
2019-06-17 05:00:00 14.1 7 Sudoeste 9 Sudoeste 0 974.3 -0.4 78
2019-06-17 04:00:00 15.2 6 Oeste 13 Oeste 0 974.3 -0.1 74
2019-06-17 03:00:00 16.7 10 Sudoeste 13 Oeste 0 974.5 0.2 63
2019-06-17 02:00:00 16.4 0 Calma 5 Noroeste 0 974.7 0.6 79
2019-06-17 01:00:00 17.8 0 Calma 8 Sudeste 0 974.4 1 72
2019-06-17 00:00:00 20.3 7 Sudeste 9 Sudeste 0 974.3 1.2 51
2019-06-16 23:00:00 21.5 3 Este 13 Este 0 974.1 1.2 47
2019-06-16 22:00:00 22.1 4 Este 9 Nordeste 0 973.4 0.5 41
2019-06-16 21:00:00 26 5 Este 15 Este 0 973.1 -0.1 44
2019-06-16 20:00:00 28.3 11 Este 18 Este 0 972.9 -0.9 24
2019-06-16 19:00:00 29.4 14 Este 24 Nordeste 0 972.9 -1.6 22
2019-06-16 18:00:00 29.4 14 Este 26 Nordeste 0 973.2 -2.1 22
2019-06-16 17:00:00 29.3 17 Este 32 Este 0 973.8 -2.4 22
2019-06-16 16:00:00 28.5 22 Este 33 Este 0 974.5 -2.3 25
2019-06-16 15:00:00 27.3 22 Este 35 Nordeste 0 975.3 -2.4 26
2019-06-16 14:00:00 26 22 Este 33 Este 0 976.2 -2.1 27
2019-06-16 13:00:00 24.2 20 Este 30 Este 0 976.8 -1.7 32
2019-06-16 12:00:00 21.6 17 Este 24 Este 0 977.7 -1 41
2019-06-16 11:00:00 19.3 12 Este 21 Este 0 978.3 -0.5 47
2019-06-16 10:00:00 16.9 3 Norte 11 Noroeste 0 978.5 -0.1 60
2019-06-16 09:00:00 14.3 5 Oeste 13 Oeste 0 978.7 0.3 69
2019-06-16 08:00:00 11.9 8 Oeste 9 Oeste 0 978.8 0.3 78
2019-06-16 07:00:00 9.3 4 Oeste 5 Oeste 0 978.6 -0.3 88
2019-06-16 06:00:00 8.8 0 Calma 9 Oeste 0 978.4 -0.8 84
2019-06-16 05:00:00 10.5 9 Sudoeste 11 Oeste 0 978.5 -1.1 81
2019-06-16 04:00:00 10.8 3 Oeste -- -- 0 978.9 -0.7 85
2019-06-16 03:00:00 11.2 0 Calma 5 Noroeste 0 979.2 -0.3 80
2019-06-16 02:00:00 12.3 0 Calma 9 Este 0 979.6 0.4 77
2019-06-16 01:00:00 13.6 3 Oeste 9 Sudeste 0 979.6 1.4 72
2019-06-16 00:00:00 14.6 7 Sudeste 11 Este 0 979.5 2.1 60